createdAt,value
2022-08-03T00:01:10.599Z,11.52
2022-08-03T00:03:43.530Z,10.95
2022-08-03T00:06:16.322Z,8.80
2022-08-03T00:08:49.272Z,9.07
2022-08-03T00:11:22.254Z,6.78
2022-08-03T00:13:55.495Z,10.07
2022-08-03T00:16:29.803Z,10.30
2022-08-03T00:19:03.278Z,8.90
2022-08-03T00:21:36.046Z,7.80
2022-08-03T00:24:09.249Z,10.40
2022-08-03T00:26:42.387Z,9.00
2022-08-03T00:29:15.305Z,10.20
2022-08-03T00:34:36.210Z,7.15
2022-08-03T00:37:18.660Z,14.18
2022-08-03T00:42:24.210Z,8.50
2022-08-03T00:45:01.492Z,7.40
2022-08-03T00:47:35.697Z,9.85
2022-08-03T00:50:09.337Z,7.10
2022-08-03T00:52:42.696Z,12.75
2022-08-03T00:55:16.850Z,9.88
2022-08-03T00:57:50.385Z,6.30
2022-08-03T01:00:28.843Z,8.10
2022-08-03T01:03:33.395Z,7.80
2022-08-03T01:06:42.501Z,10.55
2022-08-03T01:09:24.348Z,7.40
2022-08-03T01:12:04.488Z,13.75
2022-08-03T01:15:01.233Z,10.27
2022-08-03T01:17:41.556Z,11.63
2022-08-03T01:20:18.744Z,10.68
2022-08-03T01:23:30.287Z,8.68
2022-08-03T01:26:14.461Z,9.65
2022-08-03T01:29:04.745Z,5.95
2022-08-03T01:33:00.191Z,9.95
2022-08-03T01:34:42.142Z,8.63
2022-08-03T01:37:17.513Z,9.45
2022-08-03T01:39:52.062Z,5.47
2022-08-03T01:42:26.459Z,10.90
2022-08-03T01:45:02.054Z,9.65
2022-08-03T01:47:37.202Z,11.65
2022-08-03T01:50:12.827Z,11.60
2022-08-03T01:52:47.232Z,8.77
2022-08-03T01:55:21.259Z,8.40
2022-08-03T01:58:05.233Z,5.53
2022-08-03T02:00:41.145Z,8.38
2022-08-03T02:03:17.493Z,6.03
2022-08-03T02:06:01.237Z,7.72
2022-08-03T02:08:46.057Z,6.18
2022-08-03T02:11:20.149Z,6.20
2022-08-03T02:13:54.493Z,4.88
2022-08-03T02:16:32.451Z,5.75
2022-08-03T02:19:11.110Z,5.45
2022-08-03T02:21:56.849Z,6.65
2022-08-03T02:24:34.105Z,12.40
2022-08-03T02:27:14.531Z,6.25
2022-08-03T02:29:52.247Z,6.00
2022-08-03T02:32:32.424Z,8.70
2022-08-03T02:35:10.533Z,6.72
2022-08-03T02:37:49.616Z,6.53
2022-08-03T02:40:25.250Z,6.75
2022-08-03T02:43:01.627Z,7.38
2022-08-03T02:45:37.679Z,7.55
2022-08-03T02:48:12.649Z,3.90
2022-08-03T02:50:48.462Z,7.88
2022-08-03T02:53:22.453Z,4.53
2022-08-03T02:55:57.781Z,7.00
2022-08-03T02:58:32.318Z,5.80
2022-08-03T03:01:05.762Z,8.48
2022-08-03T03:03:44.662Z,6.45
2022-08-03T03:06:20.510Z,7.63
2022-08-03T03:08:59.750Z,5.90
2022-08-03T03:11:33.511Z,8.20
2022-08-03T03:14:07.122Z,7.25
2022-08-03T03:16:43.276Z,4.90
2022-08-03T03:19:17.849Z,9.27
2022-08-03T03:21:53.140Z,9.75
2022-08-03T03:24:27.612Z,6.85
2022-08-03T03:27:01.154Z,6.55
2022-08-03T03:29:36.583Z,5.07
2022-08-03T03:32:12.460Z,7.22
2022-08-03T03:37:20.266Z,11.45
2022-08-03T03:39:54.972Z,6.70
2022-08-03T03:42:28.213Z,5.55
2022-08-03T03:45:04.622Z,7.07
2022-08-03T03:47:37.896Z,7.05
2022-08-03T03:50:12.764Z,9.80
2022-08-03T03:52:47.429Z,7.32
2022-08-03T03:55:20.446Z,7.10
2022-08-03T03:57:54.005Z,7.95
2022-08-03T04:00:27.316Z,7.35
2022-08-03T04:03:00.962Z,6.43
2022-08-03T04:05:52.529Z,11.25
2022-08-03T04:08:44.611Z,9.35
2022-08-03T04:11:30.055Z,6.43
2022-08-03T04:14:08.290Z,9.15
2022-08-03T04:16:44.206Z,8.32
2022-08-03T04:19:23.424Z,6.43
2022-08-03T04:22:00.221Z,7.00
2022-08-03T04:24:39.358Z,7.05
2022-08-03T04:27:15.158Z,4.60
2022-08-03T04:29:50.426Z,8.73
2022-08-03T04:32:28.615Z,12.50
2022-08-03T04:35:01.598Z,5.10
2022-08-03T04:37:40.087Z,8.43
2022-08-03T04:40:16.211Z,7.00
2022-08-03T04:42:56.006Z,5.30
2022-08-03T04:45:30.125Z,9.15
2022-08-03T04:48:03.554Z,4.30
2022-08-03T04:50:37.443Z,8.02
2022-08-03T04:53:10.483Z,6.10
2022-08-03T04:58:17.646Z,8.07
2022-08-03T05:00:52.103Z,8.40
2022-08-03T05:03:27.114Z,7.90
2022-08-03T05:06:01.646Z,6.25
2022-08-03T05:08:36.405Z,9.10
2022-08-03T05:11:20.439Z,6.97
2022-08-03T05:13:53.735Z,8.75
2022-08-03T05:16:26.932Z,8.15
2022-08-03T05:18:59.756Z,4.88
2022-08-03T05:21:52.722Z,5.70
2022-08-03T05:24:26.089Z,5.50
2022-08-03T05:27:00.293Z,8.18
2022-08-03T05:29:33.035Z,6.40
2022-08-03T05:32:08.388Z,6.63
2022-08-03T05:34:41.377Z,8.07
2022-08-03T05:37:14.433Z,6.95
2022-08-03T05:39:48.634Z,7.45
2022-08-03T05:42:22.704Z,10.57
2022-08-03T05:44:55.437Z,6.25
2022-08-03T05:47:28.270Z,6.20
2022-08-03T05:50:00.993Z,7.60
2022-08-03T05:52:33.738Z,7.22
2022-08-03T05:55:07.540Z,6.85
2022-08-03T05:57:42.114Z,8.15
2022-08-03T06:00:18.499Z,9.65
2022-08-03T06:02:51.717Z,9.85
2022-08-03T06:05:27.051Z,14.77
2022-08-03T06:07:59.801Z,9.15
2022-08-03T06:10:37.886Z,10.70
2022-08-03T06:13:12.496Z,10.45
2022-08-03T06:15:45.377Z,9.18
2022-08-03T06:18:18.160Z,9.18
2022-08-03T06:20:50.881Z,11.20
2022-08-03T06:23:34.212Z,11.90
2022-08-03T06:26:20.160Z,10.20
2022-08-03T06:28:56.827Z,13.57
2022-08-03T06:31:33.227Z,7.95
2022-08-03T06:34:32.237Z,7.40
2022-08-03T06:39:35.233Z,11.48
2022-08-03T06:42:08.200Z,11.38
2022-08-03T06:44:44.050Z,13.00
2022-08-03T06:47:17.251Z,7.82
2022-08-03T06:50:13.002Z,12.18
2022-08-03T06:52:42.829Z,13.57
2022-08-03T06:57:48.288Z,8.83
2022-08-03T07:00:22.909Z,8.70
2022-08-03T07:02:58.271Z,13.45
2022-08-03T07:05:33.495Z,8.13
2022-08-03T07:08:06.336Z,12.93
2022-08-03T07:13:12.270Z,9.48
2022-08-03T07:19:13.928Z,11.40
2022-08-03T07:21:47.237Z,11.77
2022-08-03T07:24:20.135Z,17.58
2022-08-03T07:29:25.978Z,19.02
2022-08-03T07:31:58.720Z,13.23
2022-08-03T07:34:33.298Z,15.15
2022-08-03T07:37:05.995Z,16.15
2022-08-03T07:39:38.749Z,15.05
2022-08-03T07:44:44.898Z,11.07
2022-08-03T07:47:22.626Z,14.00
2022-08-03T07:49:57.478Z,18.73
2022-08-03T07:52:47.719Z,22.35
2022-08-03T07:55:22.240Z,20.20
2022-08-03T07:58:02.956Z,21.25
2022-08-03T08:00:36.756Z,14.57
2022-08-03T08:03:10.083Z,16.50
2022-08-03T08:05:44.252Z,15.80
2022-08-03T08:08:17.039Z,14.35
2022-08-03T08:10:58.378Z,19.25
2022-08-03T08:13:31.593Z,15.27
2022-08-03T08:18:38.535Z,16.50
2022-08-03T08:23:48.048Z,18.75
2022-08-03T08:26:30.092Z,17.58
2022-08-03T08:29:05.048Z,12.82
2022-08-03T08:31:37.915Z,14.15
2022-08-03T08:36:44.747Z,10.05
2022-08-03T08:39:17.622Z,16.02
2022-08-03T08:41:53.343Z,15.98
2022-08-03T08:44:26.227Z,18.05
2022-08-03T08:49:37.467Z,15.60
2022-08-03T08:52:25.117Z,17.25
2022-08-03T08:55:00.770Z,16.90
2022-08-03T08:57:44.680Z,14.60
2022-08-03T09:00:18.693Z,12.73
2022-08-03T09:02:51.697Z,17.40
2022-08-03T09:05:36.284Z,14.00
2022-08-03T09:08:19.285Z,17.85
2022-08-03T09:10:52.021Z,11.95
2022-08-03T09:16:14.190Z,14.93
2022-08-03T09:18:49.945Z,16.50
2022-08-03T09:21:33.471Z,14.98
2022-08-03T09:24:20.702Z,18.83
2022-08-03T09:27:01.376Z,16.13
2022-08-03T09:29:34.883Z,15.90
2022-08-03T09:32:07.923Z,13.95
2022-08-03T09:34:40.704Z,15.25
2022-08-03T09:39:49.104Z,16.15
2022-08-03T09:42:24.295Z,20.30
2022-08-03T09:44:58.065Z,17.98
2022-08-03T09:47:33.625Z,17.05
2022-08-03T09:50:08.714Z,17.80
2022-08-03T09:52:52.046Z,15.02
2022-08-03T09:56:33.567Z,16.33
2022-08-03T09:58:21.933Z,16.38
2022-08-03T10:00:57.729Z,14.55
2022-08-03T10:03:32.202Z,15.43
2022-08-03T10:06:16.495Z,12.48
2022-08-03T10:09:06.966Z,20.42
2022-08-03T10:11:43.060Z,14.93
2022-08-03T10:14:19.833Z,15.85
2022-08-03T10:16:52.934Z,15.38
2022-08-03T10:19:26.562Z,10.73
2022-08-03T10:22:04.947Z,13.98
2022-08-03T10:24:40.278Z,14.52
2022-08-03T10:27:16.002Z,18.40
2022-08-03T10:29:54.481Z,16.13
2022-08-03T10:32:31.607Z,11.65
2022-08-03T10:35:19.005Z,11.80
2022-08-03T10:37:59.262Z,13.45
2022-08-03T10:40:47.969Z,14.23
2022-08-03T10:43:28.527Z,16.67
2022-08-03T10:46:02.639Z,17.77
2022-08-03T10:48:37.175Z,18.05
2022-08-03T10:51:10.050Z,14.73
2022-08-03T10:53:52.828Z,14.30
2022-08-03T10:56:58.638Z,17.38
2022-08-03T11:00:03.123Z,13.05
2022-08-03T11:03:10.896Z,14.23
2022-08-03T11:05:45.043Z,13.68
2022-08-03T11:08:26.410Z,17.38
2022-08-03T11:11:02.549Z,11.93
2022-08-03T11:13:35.389Z,14.35
2022-08-03T11:16:23.361Z,15.13
2022-08-03T11:19:00.904Z,20.98
2022-08-03T11:21:55.454Z,14.40
2022-08-03T11:24:59.843Z,12.60
2022-08-03T11:27:34.470Z,15.57
2022-08-03T11:30:09.332Z,14.05
2022-08-03T11:33:02.889Z,14.75
2022-08-03T11:35:36.581Z,14.90
2022-08-03T11:38:11.757Z,15.77
2022-08-03T11:40:46.295Z,12.57
2022-08-03T11:43:46.427Z,10.38
2022-08-03T11:46:28.748Z,14.30
2022-08-03T11:49:10.778Z,12.75
2022-08-03T11:51:44.144Z,15.45
2022-08-03T11:54:20.709Z,11.48
2022-08-03T11:56:53.433Z,12.48
2022-08-03T11:59:33.306Z,13.52
2022-08-03T12:02:09.094Z,16.80
2022-08-03T12:04:52.975Z,12.65
2022-08-03T12:08:04.021Z,15.57
2022-08-03T12:10:21.151Z,14.68
2022-08-03T12:12:56.860Z,11.40
2022-08-03T12:15:33.911Z,16.15
2022-08-03T12:18:15.569Z,15.68
2022-08-03T12:20:52.014Z,17.07
2022-08-03T12:23:24.736Z,14.77
2022-08-03T12:26:03.139Z,15.25
2022-08-03T12:28:38.419Z,14.60
2022-08-03T12:31:11.631Z,14.88
2022-08-03T12:33:59.443Z,18.40
2022-08-03T12:36:36.320Z,15.57
2022-08-03T12:39:11.815Z,12.93
2022-08-03T12:41:44.899Z,18.00
2022-08-03T12:44:17.898Z,10.40
2022-08-03T12:46:59.907Z,13.75
2022-08-03T12:49:46.262Z,20.35
2022-08-03T12:52:23.603Z,12.77
2022-08-03T12:54:57.357Z,16.90
2022-08-03T12:57:42.125Z,16.92
2022-08-03T13:00:21.409Z,13.35
2022-08-03T13:03:38.472Z,10.95
2022-08-03T13:05:57.484Z,17.15
2022-08-03T13:08:31.786Z,18.77
2022-08-03T13:11:22.774Z,10.70
2022-08-03T13:13:56.364Z,17.73
2022-08-03T13:16:29.096Z,14.52
2022-08-03T13:19:01.858Z,12.90
2022-08-03T13:21:34.670Z,12.70
2022-08-03T13:24:27.871Z,14.85
2022-08-03T13:28:01.990Z,11.25
2022-08-03T13:29:58.242Z,15.20
2022-08-03T13:32:31.061Z,19.65
2022-08-03T13:35:04.431Z,12.82
2022-08-03T13:37:37.483Z,11.48
2022-08-03T13:40:12.497Z,18.65
2022-08-03T13:42:47.602Z,16.35
2022-08-03T13:45:20.513Z,15.52
2022-08-03T13:47:53.236Z,10.38
2022-08-03T13:50:26.084Z,11.80
2022-08-03T13:52:59.381Z,9.93
2022-08-03T13:55:33.645Z,11.05
2022-08-03T13:58:07.971Z,11.73
2022-08-03T14:00:40.833Z,10.98
2022-08-03T14:03:14.683Z,7.47
2022-08-03T14:05:48.190Z,8.05
2022-08-03T14:08:21.019Z,8.38
2022-08-03T14:10:55.211Z,9.43
2022-08-03T14:13:27.913Z,7.43
2022-08-03T14:16:00.652Z,7.47
2022-08-03T14:18:34.824Z,6.47
2022-08-03T14:21:13.878Z,4.38
2022-08-03T14:23:46.713Z,6.00
2022-08-03T14:26:20.777Z,7.45
2022-08-03T14:28:53.488Z,5.35
2022-08-03T14:32:11.713Z,4.47
2022-08-03T14:34:19.468Z,7.47
2022-08-03T14:36:52.555Z,4.32
2022-08-03T14:39:25.828Z,5.63
2022-08-03T14:42:00.209Z,7.03
2022-08-03T14:44:32.979Z,5.00
2022-08-03T14:47:05.794Z,5.65
2022-08-03T14:50:36.396Z,5.75
2022-08-03T14:52:31.308Z,6.38
2022-08-03T14:55:04.061Z,7.47
2022-08-03T14:57:38.110Z,5.97
2022-08-03T15:00:12.038Z,5.53
2022-08-03T15:02:44.833Z,5.72
2022-08-03T15:05:17.626Z,5.82
2022-08-03T15:07:50.378Z,10.05
2022-08-03T15:10:27.077Z,9.98
2022-08-03T15:13:18.069Z,9.73
2022-08-03T15:15:51.749Z,9.70
2022-08-03T15:18:24.742Z,8.65
2022-08-03T15:20:57.562Z,10.32
2022-08-03T15:23:30.248Z,8.57
2022-08-03T15:26:32.792Z,8.30
2022-08-03T15:28:58.981Z,5.95
2022-08-03T15:31:31.735Z,6.18
2022-08-03T15:34:04.487Z,8.20
2022-08-03T15:36:37.192Z,7.18
2022-08-03T15:39:10.344Z,6.45
2022-08-03T15:41:43.150Z,6.93
2022-08-03T15:44:20.224Z,9.70
2022-08-03T15:46:53.946Z,8.02
2022-08-03T15:49:26.787Z,7.60
2022-08-03T15:52:01.056Z,7.55
2022-08-03T15:54:33.791Z,6.95
2022-08-03T15:57:06.655Z,8.38
2022-08-03T15:59:40.762Z,7.63
2022-08-03T16:02:13.509Z,5.80
2022-08-03T16:04:46.307Z,6.85
2022-08-03T16:07:39.085Z,5.18
2022-08-03T16:10:12.686Z,14.75
2022-08-03T16:12:45.892Z,8.88
2022-08-03T16:15:20.010Z,29.73
2022-08-03T16:17:52.760Z,40.92
2022-08-03T16:20:31.726Z,29.13
2022-08-03T16:23:11.464Z,12.45
2022-08-03T16:25:49.389Z,13.82
2022-08-03T16:28:22.918Z,15.27
2022-08-03T16:30:58.244Z,9.07
2022-08-03T16:33:30.990Z,9.15
2022-08-03T16:36:03.955Z,11.10
2022-08-03T16:38:36.657Z,4.75
2022-08-03T16:41:10.115Z,7.05
2022-08-03T16:43:42.894Z,9.98
2022-08-03T16:46:16.961Z,7.22
2022-08-03T16:48:49.778Z,7.43
2022-08-03T16:51:22.876Z,5.72
2022-08-03T16:54:07.816Z,7.90
2022-08-03T16:56:45.271Z,8.80
2022-08-03T16:59:18.350Z,14.27
2022-08-03T17:01:52.811Z,8.13
2022-08-03T17:04:31.061Z,9.38
2022-08-03T17:07:06.862Z,6.95
2022-08-03T17:09:41.529Z,10.35
2022-08-03T17:12:14.672Z,6.75
2022-08-03T17:14:47.651Z,11.80
2022-08-03T17:17:28.770Z,9.02
2022-08-03T17:20:09.765Z,9.45
2022-08-03T17:22:50.907Z,8.63
2022-08-03T17:25:39.809Z,8.38
2022-08-03T17:28:48.702Z,11.82
2022-08-03T17:31:23.078Z,11.27
2022-08-03T17:34:07.015Z,8.52
2022-08-03T17:37:03.241Z,6.47
2022-08-03T17:39:58.870Z,7.47
2022-08-03T17:42:30.382Z,15.27
2022-08-03T17:45:06.646Z,9.23
2022-08-03T17:47:42.056Z,5.75
2022-08-03T17:50:24.756Z,6.03
2022-08-03T17:53:07.095Z,6.95
2022-08-03T17:55:59.397Z,6.10
2022-08-03T17:58:54.633Z,5.13
2022-08-03T18:04:55.439Z,7.40
2022-08-03T18:07:41.136Z,8.03
2022-08-03T18:10:17.770Z,9.70
2022-08-03T18:12:54.699Z,8.43
2022-08-03T18:15:31.966Z,7.15
2022-08-03T18:18:10.384Z,7.65
2022-08-03T18:23:40.198Z,6.50
2022-08-03T18:26:14.031Z,9.95
2022-08-03T18:28:50.620Z,5.70
2022-08-03T18:32:00.564Z,4.80
2022-08-03T18:34:33.282Z,7.63
2022-08-03T18:37:08.104Z,6.78
2022-08-03T18:39:49.923Z,5.88
2022-08-03T18:42:25.798Z,5.85
2022-08-03T18:44:59.803Z,10.55
2022-08-03T18:48:04.944Z,7.00
2022-08-03T18:50:49.591Z,4.70
2022-08-03T18:54:02.251Z,6.10
2022-08-03T18:56:35.720Z,6.65
2022-08-03T18:59:15.773Z,4.85
2022-08-03T19:02:00.683Z,8.90
2022-08-03T19:04:45.662Z,10.77
2022-08-03T19:07:25.609Z,5.95
2022-08-03T19:10:03.772Z,11.57
2022-08-03T19:12:46.606Z,8.48
2022-08-03T19:15:36.446Z,7.13
2022-08-03T19:18:11.969Z,7.65
2022-08-03T19:20:50.994Z,13.77
2022-08-03T19:23:26.759Z,8.00
2022-08-03T19:26:07.123Z,7.63
2022-08-03T19:29:01.711Z,9.07
2022-08-03T19:31:38.948Z,8.60
2022-08-03T19:34:13.197Z,10.40
2022-08-03T19:36:49.442Z,8.43
2022-08-03T19:39:23.599Z,10.30
2022-08-03T19:42:07.980Z,12.82
2022-08-03T19:44:50.858Z,8.18
2022-08-03T19:47:32.887Z,13.43
2022-08-03T19:50:13.888Z,7.10
2022-08-03T19:52:48.979Z,9.75
2022-08-03T19:55:22.381Z,12.32
2022-08-03T19:57:57.545Z,6.53
2022-08-03T20:00:32.788Z,8.88
2022-08-03T20:03:18.247Z,10.90
2022-08-03T20:05:55.096Z,10.02
2022-08-03T20:08:28.099Z,11.63
2022-08-03T20:11:01.040Z,9.88
2022-08-03T20:13:39.029Z,9.02
2022-08-03T20:16:13.550Z,8.93
2022-08-03T20:18:49.146Z,11.10
2022-08-03T20:21:25.640Z,10.15
2022-08-03T20:24:24.488Z,9.18
2022-08-03T20:27:00.261Z,6.90
2022-08-03T20:30:06.088Z,8.30
2022-08-03T20:32:32.569Z,4.60
2022-08-03T20:35:09.916Z,7.32
2022-08-03T20:37:44.572Z,6.53
2022-08-03T20:40:17.564Z,4.55
2022-08-03T20:42:51.948Z,6.75
2022-08-03T20:48:22.018Z,4.65
2022-08-03T20:50:56.378Z,3.45
2022-08-03T20:53:41.325Z,6.18
2022-08-03T20:56:23.770Z,5.55
2022-08-03T20:58:56.849Z,3.92
2022-08-03T21:01:36.262Z,7.47
2022-08-03T21:04:13.589Z,4.22
2022-08-03T21:06:53.515Z,5.53
2022-08-03T21:09:33.416Z,4.60
2022-08-03T21:12:17.881Z,5.45
2022-08-03T21:12:57.779Z,11.18
2022-08-03T21:13:03.947Z,8.20
2022-08-03T21:13:07.420Z,3.75
2022-08-03T21:15:00.621Z,4.80
2022-08-03T21:17:42.369Z,5.28
2022-08-03T21:20:16.761Z,3.43
2022-08-03T21:22:54.122Z,5.47
2022-08-03T21:25:29.562Z,4.93
2022-08-03T21:28:02.985Z,3.72
2022-08-03T21:30:36.995Z,4.63
2022-08-03T21:33:09.688Z,4.70
2022-08-03T21:35:46.244Z,3.33
2022-08-03T21:38:29.685Z,4.43
2022-08-03T21:41:03.932Z,4.13
2022-08-03T21:43:36.688Z,3.20
2022-08-03T21:48:44.731Z,5.03
2022-08-03T21:51:23.375Z,3.55
2022-08-03T21:54:03.000Z,2.55
2022-08-03T21:56:41.204Z,2.60
2022-08-03T21:59:19.299Z,3.58
2022-08-03T22:01:55.414Z,2.60
2022-08-03T22:04:50.048Z,4.20
2022-08-03T22:07:29.397Z,3.40
2022-08-03T22:10:05.007Z,3.83
2022-08-03T22:12:38.207Z,4.05
2022-08-03T22:15:14.370Z,3.22
2022-08-03T22:17:55.383Z,3.42
2022-08-03T22:20:30.654Z,3.30
2022-08-03T22:23:06.922Z,3.80
2022-08-03T22:25:40.768Z,2.40
2022-08-03T22:28:15.018Z,5.35
2022-08-03T22:30:48.876Z,2.50
2022-08-03T22:33:22.129Z,2.75
2022-08-03T22:35:58.983Z,3.75
2022-08-03T22:38:34.358Z,3.33
2022-08-03T22:41:07.111Z,2.50
2022-08-03T22:46:18.648Z,4.03
2022-08-03T22:48:52.131Z,6.72
2022-08-03T22:51:24.989Z,4.13
2022-08-03T22:54:00.074Z,2.50
2022-08-03T22:56:38.620Z,3.97
2022-08-03T22:59:39.179Z,3.60
2022-08-03T23:02:20.736Z,3.50
2022-08-03T23:05:02.703Z,2.30
2022-08-03T23:07:38.640Z,3.35
2022-08-03T23:10:15.130Z,3.60
2022-08-03T23:12:50.043Z,2.58
2022-08-03T23:15:28.670Z,3.05
2022-08-03T23:18:03.296Z,3.13
2022-08-03T23:20:37.783Z,2.92
2022-08-03T23:23:10.828Z,4.10
2022-08-03T23:25:45.336Z,4.72
2022-08-03T23:28:18.994Z,3.92
2022-08-03T23:30:52.966Z,2.00
2022-08-03T23:33:27.497Z,3.92
2022-08-03T23:36:27.840Z,3.13
2022-08-03T23:38:58.347Z,3.53
2022-08-03T23:41:33.936Z,4.28
2022-08-03T23:44:08.351Z,4.63
2022-08-03T23:46:42.067Z,3.80
2022-08-03T23:49:15.040Z,2.65
2022-08-03T23:51:53.556Z,2.78
2022-08-03T23:54:43.222Z,3.97
2022-08-03T23:57:24.959Z,2.88
